San Ramon de la Nueva Oran, Argentina
Current Conditions -  °F | °C
As of 9:00 PM on Wednesday 28 Jan 2015 (Local Time) from SASJ Reporting Station
Thunderstorm Thunderstorm  
Wind Chill: 66°   Ceiling: 7000
Heat Index: 66°   Visibility: 6mi
Dew Point: 66°   Wind: 13mph
Humidity: 100%   Direction: 320°NW
Pressure: 29.91"   Gusts: NA
Location:  23.13°S, 64.33°W
Report Text: SASJ 290000Z 32011KT 9999 VCTS SCT020FEW035CB OVC070 19/19 Q1013
Loading
Personal Weather Stations






























Interactive Weather Map New forecast layout! Learn more

10-Day Weather Forecast

Advertisements
Track Severe Weather on mobile